Time;durP1;ratioP1;P1;durP2;ratioP2;P2;SDS_P1;SDS_P2;PMS_P1;PMS_P2;Temp;Humidity;BMP_temperature;BMP_pressure;BME280_temperature;BME280_humidity;BME280_pressure;Samples;Min_cycle;Max_cycle;Signal;HPM_P1;HPM_P2
2022/01/16 00:04:44;;;;;;;52.15;17.70;;;;;;;;;;4958455;29;20054;-88
2022/01/16 00:07:09;;;;;;;66.53;19.52;;;;;;;;;;4975148;28;20027;-85
2022/01/16 00:09:38;;;;;;;61.10;18.70;;;;;;;;;;4959074;29;20059;-88
2022/01/16 00:12:06;;;;;;;90.72;20.70;;;;;;;;;;4960803;29;20156;-88
2022/01/16 00:14:32;;;;;;;88.72;20.50;;;;;;;;;;4940559;29;20034;-88
2022/01/16 00:16:58;;;;;;;60.17;19.40;;;;;;;;;;4975237;28;20051;-86
2022/01/16 00:19:24;;;;;;;83.63;22.50;;;;;;;;;;4976976;28;20045;-86
2022/01/16 00:21:50;;;;;;;59.45;18.90;;;;;;;;;;4965848;28;20186;-88
2022/01/16 00:24:15;;;;;;;76.13;19.45;;;;;;;;;;4958587;28;20071;-88
2022/01/16 00:26:41;;;;;;;62.60;20.75;;;;;;;;;;4972848;28;20046;-88
2022/01/16 00:29:08;;;;;;;68.45;21.20;;;;;;;;;;4964112;28;20031;-86
2022/01/16 00:31:37;;;;;;;63.20;19.98;;;;;;;;;;4967311;28;20028;-88
2022/01/16 00:34:03;;;;;;;60.92;20.80;;;;;;;;;;4961461;29;20047;-88
2022/01/16 00:36:29;;;;;;;82.10;22.70;;;;;;;;;;4961513;28;20031;-86
2022/01/16 00:38:57;;;;;;;69.47;22.25;;;;;;;;;;4962194;29;20062;-89
2022/01/16 00:41:22;;;;;;;82.60;21.80;;;;;;;;;;4960520;28;20620;-89
2022/01/16 00:43:49;;;;;;;73.25;21.55;;;;;;;;;;4945175;29;20047;-89
2022/01/16 00:46:15;;;;;;;57.53;22.63;;;;;;;;;;4962729;28;20035;-88
2022/01/16 00:48:40;;;;;;;60.90;20.80;;;;;;;;;;4945990;29;20038;-87
2022/01/16 00:51:06;;;;;;;68.47;20.77;;;;;;;;;;4950892;29;20039;-89
2022/01/16 00:53:32;;;;;;;61.88;21.42;;;;;;;;;;4943891;29;20114;-86
2022/01/16 00:55:57;;;;;;;68.93;22.27;;;;;;;;;;4961558;28;20468;-87
2022/01/16 00:58:22;;;;;;;63.65;22.13;;;;;;;;;;4972794;28;20034;-86
2022/01/16 01:00:48;;;;;;;62.50;21.27;;;;;;;;;;4965070;28;20114;-86
2022/01/16 01:03:14;;;;;;;60.08;23.45;;;;;;;;;;4945156;29;20038;-85
2022/01/16 01:05:39;;;;;;;71.07;22.17;;;;;;;;;;4962783;29;20031;-85
2022/01/16 01:08:05;;;;;;;65.32;23.25;;;;;;;;;;4945056;29;20030;-83
2022/01/16 01:10:35;;;;;;;64.10;20.27;;;;;;;;;;4963998;29;20027;-86
2022/01/16 01:16:02;;;;;;;55.08;21.50;;;;;;;;;;4980663;28;20097;-86
2022/01/16 01:18:33;;;;;;;63.50;21.27;;;;;;;;;;4948425;29;20046;-85
2022/01/16 01:21:02;;;;;;;59.28;22.15;;;;;;;;;;4978139;29;20027;-85
2022/01/16 01:23:27;;;;;;;61.05;22.77;;;;;;;;;;4975880;28;20118;-84
2022/01/16 01:25:52;;;;;;;61.22;20.55;;;;;;;;;;4976307;28;20059;-86
2022/01/16 01:28:18;;;;;;;74.78;20.50;;;;;;;;;;4972367;28;20020;-85
2022/01/16 01:30:44;;;;;;;59.42;18.30;;;;;;;;;;4969739;28;20090;-85
2022/01/16 01:33:13;;;;;;;57.75;20.08;;;;;;;;;;4983745;28;20033;-84
2022/01/16 01:35:39;;;;;;;71.35;20.05;;;;;;;;;;4981008;28;20016;-85
2022/01/16 01:38:10;;;;;;;66.22;19.88;;;;;;;;;;4999267;28;20035;-84
2022/01/16 01:40:37;;;;;;;54.83;20.60;;;;;;;;;;4986763;28;20051;-86
2022/01/16 01:51:10;;;;;;;59.47;20.25;;;;;;;;;;4973969;28;20061;-84
2022/01/16 01:53:37;;;;;;;63.80;21.48;;;;;;;;;;4990372;28;20030;-84
2022/01/16 01:56:05;;;;;;;45.30;19.50;;;;;;;;;;4979594;28;20007;-87
2022/01/16 01:58:31;;;;;;;54.10;21.42;;;;;;;;;;4984931;28;20070;-84
2022/01/16 02:00:57;;;;;;;51.10;19.50;;;;;;;;;;4998706;28;20050;-85
2022/01/16 02:03:30;;;;;;;69.13;20.48;;;;;;;;;;4978265;28;20049;-85
2022/01/16 02:05:55;;;;;;;82.72;19.98;;;;;;;;;;4958931;28;20114;-85
2022/01/16 02:08:21;;;;;;;76.78;20.70;;;;;;;;;;4961328;28;20046;-87
2022/01/16 02:10:46;;;;;;;58.30;21.63;;;;;;;;;;4962014;28;20397;-85
2022/01/16 02:13:26;;;;;;;43.67;18.73;;;;;;;;;;4978572;28;20027;-84
2022/01/16 02:27:59;;;;;;;46.50;18.85;;;;;;;;;;4963158;28;20027;-84
2022/01/16 02:34:54;;;;;;;46.10;17.45;;;;;;;;;;4977157;28;20057;-87
2022/01/16 02:37:23;;;;;;;56.17;18.67;;;;;;;;;;4948713;29;20028;-85
2022/01/16 02:39:51;;;;;;;41.45;17.63;;;;;;;;;;4954727;28;20548;-87
2022/01/16 02:42:18;;;;;;;55.95;17.27;;;;;;;;;;4978408;28;20039;-88
2022/01/16 02:44:49;;;;;;;76.60;16.80;;;;;;;;;;4961960;28;20028;-87
2022/01/16 02:47:18;;;;;;;85.95;19.52;;;;;;;;;;4949187;28;20035;-89
2022/01/16 02:49:47;;;;;;;47.42;18.58;;;;;;;;;;4957875;29;20517;-87
2022/01/16 02:52:15;;;;;;;64.68;18.20;;;;;;;;;;4952044;28;20078;-87
2022/01/16 02:54:43;;;;;;;49.13;16.65;;;;;;;;;;4965576;28;20474;-87
2022/01/16 02:57:14;;;;;;;61.70;18.08;;;;;;;;;;4966899;28;20029;-88
2022/01/16 02:59:48;;;;;;;71.13;17.10;;;;;;;;;;4966057;28;20023;-87
2022/01/16 03:02:13;;;;;;;70.45;18.45;;;;;;;;;;4964445;28;20369;-86
2022/01/16 03:04:39;;;;;;;51.10;17.83;;;;;;;;;;4960103;28;20058;-87
2022/01/16 03:07:05;;;;;;;50.88;17.50;;;;;;;;;;4984175;28;20031;-87
2022/01/16 03:12:15;;;;;;;56.45;17.67;;;;;;;;;;4968635;28;20030;-85
2022/01/16 03:14:40;;;;;;;47.22;16.55;;;;;;;;;;4973322;28;20034;-87
2022/01/16 03:17:06;;;;;;;78.68;18.55;;;;;;;;;;4969237;28;20030;-87
2022/01/16 03:22:16;;;;;;;49.72;16.45;;;;;;;;;;4960218;28;20551;-86
2022/01/16 03:24:44;;;;;;;45.25;15.52;;;;;;;;;;4974650;28;20034;-86
2022/01/16 03:27:16;;;;;;;70.43;18.67;;;;;;;;;;4951520;28;20027;-86
2022/01/16 03:29:44;;;;;;;64.95;18.20;;;;;;;;;;4971538;28;20026;-89
2022/01/16 03:32:12;;;;;;;77.22;18.05;;;;;;;;;;4972284;28;20556;-90
2022/01/16 03:34:38;;;;;;;62.72;17.77;;;;;;;;;;4966396;28;20034;-88
2022/01/16 03:37:03;;;;;;;52.80;16.77;;;;;;;;;;4941139;29;20031;-89
2022/01/16 03:39:29;;;;;;;47.38;17.77;;;;;;;;;;4958990;28;20062;-88
2022/01/16 03:41:56;;;;;;;66.35;17.85;;;;;;;;;;4962267;28;20023;-89
2022/01/16 03:44:22;;;;;;;86.07;16.85;;;;;;;;;;4955747;28;20047;-88
2022/01/16 03:46:47;;;;;;;72.72;18.85;;;;;;;;;;4965123;28;20572;-88
2022/01/16 03:49:16;;;;;;;64.95;17.85;;;;;;;;;;4957637;28;20054;-89
2022/01/16 03:51:43;;;;;;;79.93;17.67;;;;;;;;;;4958872;29;20023;-88
2022/01/16 03:54:11;;;;;;;48.25;18.20;;;;;;;;;;4970476;28;20035;-89
2022/01/16 03:56:37;;;;;;;52.38;17.83;;;;;;;;;;4970522;28;20054;-88
2022/01/16 03:59:03;;;;;;;55.03;18.30;;;;;;;;;;4970692;28;20042;-88
2022/01/16 04:01:29;;;;;;;44.60;16.70;;;;;;;;;;4967622;28;20024;-87
2022/01/16 04:03:55;;;;;;;42.42;18.00;;;;;;;;;;4965782;29;20034;-86
2022/01/16 04:06:24;;;;;;;43.75;16.70;;;;;;;;;;4962175;29;20027;-87
2022/01/16 04:08:53;;;;;;;39.70;17.40;;;;;;;;;;4976961;28;20019;-87
2022/01/16 04:11:18;;;;;;;48.60;18.17;;;;;;;;;;4977916;28;20057;-86
2022/01/16 04:16:48;;;;;;;60.10;17.45;;;;;;;;;;4917438;29;20047;-86
2022/01/16 04:19:13;;;;;;;42.05;16.50;;;;;;;;;;4920486;29;20028;-85
2022/01/16 04:21:38;;;;;;;59.47;18.05;;;;;;;;;;4942295;28;20035;-85
2022/01/16 04:24:04;;;;;;;48.15;17.08;;;;;;;;;;4972015;28;20155;-85
2022/01/16 04:26:30;;;;;;;53.88;18.95;;;;;;;;;;4966492;28;20023;-87
2022/01/16 04:28:55;;;;;;;57.88;18.63;;;;;;;;;;4971674;28;20500;-86
2022/01/16 04:31:21;;;;;;;51.40;18.30;;;;;;;;;;4958583;28;20027;-86
2022/01/16 04:33:47;;;;;;;54.40;17.70;;;;;;;;;;4943487;29;20027;-88
2022/01/16 04:36:13;;;;;;;66.35;18.48;;;;;;;;;;4953417;28;20087;-85
2022/01/16 04:38:47;;;;;;;46.53;17.38;;;;;;;;;;4959608;28;20023;-88
2022/01/16 04:43:58;;;;;;;43.97;17.27;;;;;;;;;;4960567;28;20235;-86
2022/01/16 04:46:27;;;;;;;43.08;18.13;;;;;;;;;;4967718;28;20552;-87
2022/01/16 04:48:54;;;;;;;43.58;16.27;;;;;;;;;;4962559;28;20456;-85
2022/01/16 04:51:20;;;;;;;37.47;16.85;;;;;;;;;;4939525;29;20074;-86
2022/01/16 04:53:46;;;;;;;40.42;18.13;;;;;;;;;;4956441;28;20031;-86
2022/01/16 04:56:11;;;;;;;35.75;15.82;;;;;;;;;;4963636;28;20019;-86
2022/01/16 04:58:38;;;;;;;40.10;16.52;;;;;;;;;;4968335;28;20023;-86
2022/01/16 05:01:05;;;;;;;42.92;17.10;;;;;;;;;;4957883;28;20050;-86
2022/01/16 05:03:31;;;;;;;39.40;16.63;;;;;;;;;;4955586;28;20022;-86
2022/01/16 05:05:58;;;;;;;37.90;16.58;;;;;;;;;;4962008;28;20054;-86
2022/01/16 05:08:23;;;;;;;37.90;16.45;;;;;;;;;;4978821;28;20022;-86
2022/01/16 05:10:55;;;;;;;39.75;15.95;;;;;;;;;;4960723;28;20103;-86
2022/01/16 05:18:37;;;;;;;29.67;15.60;;;;;;;;;;4967788;28;20027;-86
2022/01/16 05:21:03;;;;;;;34.88;15.38;;;;;;;;;;4957362;28;20106;-87
2022/01/16 05:23:28;;;;;;;38.67;15.82;;;;;;;;;;4943114;29;20148;-86
2022/01/16 05:25:54;;;;;;;31.73;16.30;;;;;;;;;;4973170;28;20038;-87
2022/01/16 05:28:20;;;;;;;34.33;16.20;;;;;;;;;;4967967;28;20031;-87
2022/01/16 05:30:45;;;;;;;27.08;13.15;;;;;;;;;;4943286;29;20027;-88
2022/01/16 05:33:11;;;;;;;26.08;13.77;;;;;;;;;;4951169;29;20398;-86
2022/01/16 05:35:37;;;;;;;35.72;16.70;;;;;;;;;;4959506;29;20082;-88
2022/01/16 05:38:03;;;;;;;31.83;14.85;;;;;;;;;;4959774;28;21490;-88
2022/01/16 05:40:28;;;;;;;34.20;15.00;;;;;;;;;;4962883;28;20027;-87
2022/01/16 05:42:54;;;;;;;39.67;15.77;;;;;;;;;;4943455;28;20019;-86
2022/01/16 05:45:19;;;;;;;33.13;14.32;;;;;;;;;;4965353;28;20500;-88
2022/01/16 05:47:44;;;;;;;33.65;14.77;;;;;;;;;;4965354;28;20110;-88
2022/01/16 05:50:10;;;;;;;36.38;14.45;;;;;;;;;;4948101;28;20241;-86
2022/01/16 05:52:35;;;;;;;40.88;15.60;;;;;;;;;;4975495;28;20071;-87
2022/01/16 05:55:01;;;;;;;41.80;15.95;;;;;;;;;;4960819;28;20027;-88
2022/01/16 05:57:26;;;;;;;29.17;13.77;;;;;;;;;;4954748;29;20126;-88
2022/01/16 05:59:52;;;;;;;34.00;15.05;;;;;;;;;;4978506;28;20022;-88
2022/01/16 06:02:17;;;;;;;48.35;15.73;;;;;;;;;;4981344;28;20458;-87
2022/01/16 06:04:42;;;;;;;38.90;14.43;;;;;;;;;;4982155;28;20070;-86
2022/01/16 06:07:08;;;;;;;38.05;14.88;;;;;;;;;;4988438;28;20104;-83
2022/01/16 06:09:33;;;;;;;32.58;14.77;;;;;;;;;;4997498;28;20057;-84
2022/01/16 06:11:59;;;;;;;31.38;15.73;;;;;;;;;;4979057;28;20029;-86
2022/01/16 06:14:25;;;;;;;37.35;16.45;;;;;;;;;;4960468;29;20524;-89
2022/01/16 06:16:52;;;;;;;36.50;14.50;;;;;;;;;;4968650;28;20027;-88
2022/01/16 06:19:18;;;;;;;45.72;14.35;;;;;;;;;;4963466;29;20062;-86
2022/01/16 06:21:43;;;;;;;46.05;13.65;;;;;;;;;;4964319;28;20058;-85
2022/01/16 06:24:09;;;;;;;36.53;13.85;;;;;;;;;;4975103;28;20035;-85
2022/01/16 06:26:34;;;;;;;41.30;13.05;;;;;;;;;;4968866;28;20058;-85
2022/01/16 06:29:00;;;;;;;37.60;15.27;;;;;;;;;;4963729;28;20028;-84
2022/01/16 06:31:25;;;;;;;43.78;14.77;;;;;;;;;;4967073;28;20094;-86
2022/01/16 06:33:51;;;;;;;64.40;15.20;;;;;;;;;;4963507;28;20031;-85
2022/01/16 06:36:17;;;;;;;86.95;14.93;;;;;;;;;;4965400;28;20392;-85
2022/01/16 06:38:42;;;;;;;46.10;13.73;;;;;;;;;;4963972;28;20027;-87
2022/01/16 06:41:09;;;;;;;66.00;14.20;;;;;;;;;;4964181;28;20944;-84
2022/01/16 06:43:35;;;;;;;63.92;14.40;;;;;;;;;;4976634;28;20034;-85
2022/01/16 06:46:01;;;;;;;62.65;14.80;;;;;;;;;;4965088;28;20438;-86
2022/01/16 06:48:26;;;;;;;64.93;16.92;;;;;;;;;;4966414;28;20050;-86
2022/01/16 06:50:51;;;;;;;75.38;16.45;;;;;;;;;;4961024;28;20079;-84
2022/01/16 06:53:17;;;;;;;46.20;15.98;;;;;;;;;;4956616;28;20118;-87
2022/01/16 06:55:42;;;;;;;41.40;14.45;;;;;;;;;;4969018;28;20421;-86
2022/01/16 06:58:08;;;;;;;38.08;14.55;;;;;;;;;;4958790;28;20039;-87
2022/01/16 07:00:33;;;;;;;36.97;14.93;;;;;;;;;;4962176;28;20019;-85
2022/01/16 07:02:58;;;;;;;37.78;15.00;;;;;;;;;;4960800;28;20027;-85
2022/01/16 07:05:24;;;;;;;49.63;16.00;;;;;;;;;;4970493;28;20034;-86
2022/01/16 07:07:49;;;;;;;89.45;17.38;;;;;;;;;;4968691;28;20046;-85
2022/01/16 07:10:15;;;;;;;57.78;15.25;;;;;;;;;;4959838;28;20045;-88
2022/01/16 07:12:40;;;;;;;53.65;15.48;;;;;;;;;;4959172;28;20057;-86
2022/01/16 07:15:06;;;;;;;62.03;17.33;;;;;;;;;;4968242;28;20061;-88
2022/01/16 07:17:32;;;;;;;42.53;16.88;;;;;;;;;;4963713;28;20177;-87
2022/01/16 07:19:57;;;;;;;34.42;16.45;;;;;;;;;;4961344;28;20027;-87
2022/01/16 07:22:23;;;;;;;38.78;15.93;;;;;;;;;;4969731;28;20037;-87
2022/01/16 07:24:51;;;;;;;45.75;15.77;;;;;;;;;;4969040;28;20034;-86
2022/01/16 07:27:18;;;;;;;34.60;15.88;;;;;;;;;;4953679;28;20030;-88
2022/01/16 07:29:43;;;;;;;38.55;15.63;;;;;;;;;;4965553;28;20096;-86
2022/01/16 07:32:08;;;;;;;37.53;16.15;;;;;;;;;;4961296;28;20652;-88
2022/01/16 07:34:34;;;;;;;35.05;15.00;;;;;;;;;;4971167;28;20023;-87
2022/01/16 07:36:59;;;;;;;29.42;13.75;;;;;;;;;;4966878;28;20378;-85
2022/01/16 07:39:25;;;;;;;24.45;13.73;;;;;;;;;;4971009;28;20061;-86
2022/01/16 07:41:50;;;;;;;26.35;14.32;;;;;;;;;;4954778;28;20027;-85
2022/01/16 07:44:15;;;;;;;30.75;14.63;;;;;;;;;;4961789;28;20059;-90
2022/01/16 07:46:41;;;;;;;36.63;13.88;;;;;;;;;;4970431;28;20052;-88
2022/01/16 07:49:07;;;;;;;24.80;13.48;;;;;;;;;;4966417;28;20031;-86
2022/01/16 07:51:32;;;;;;;28.98;13.65;;;;;;;;;;4976021;28;20156;-87
2022/01/16 07:53:58;;;;;;;27.27;14.13;;;;;;;;;;4970739;28;20404;-87
2022/01/16 07:56:24;;;;;;;31.20;14.05;;;;;;;;;;4968586;28;20501;-87
2022/01/16 07:58:49;;;;;;;26.60;12.98;;;;;;;;;;4965305;28;20034;-86
2022/01/16 08:01:15;;;;;;;28.85;14.32;;;;;;;;;;4944785;29;21358;-87
2022/01/16 08:03:40;;;;;;;30.33;14.68;;;;;;;;;;4966837;28;20052;-88
2022/01/16 08:06:06;;;;;;;26.38;14.73;;;;;;;;;;4958078;28;20039;-87
2022/01/16 08:08:31;;;;;;;41.00;15.52;;;;;;;;;;4939039;29;20030;-87
2022/01/16 08:10:56;;;;;;;32.92;15.70;;;;;;;;;;4957244;29;20038;-86
2022/01/16 08:13:22;;;;;;;34.67;17.00;;;;;;;;;;4957148;29;20095;-87
2022/01/16 08:15:47;;;;;;;36.72;16.65;;;;;;;;;;4972904;28;20505;-87
2022/01/16 08:18:13;;;;;;;27.90;15.98;;;;;;;;;;4957652;28;20043;-88
2022/01/16 08:20:38;;;;;;;31.42;15.07;;;;;;;;;;4946330;28;20096;-87
2022/01/16 08:23:03;;;;;;;44.25;15.77;;;;;;;;;;4958244;28;20469;-86
2022/01/16 08:25:29;;;;;;;42.72;16.13;;;;;;;;;;4960794;28;20098;-88
2022/01/16 08:27:54;;;;;;;32.60;15.57;;;;;;;;;;4965617;28;20054;-87
2022/01/16 08:30:20;;;;;;;31.67;15.88;;;;;;;;;;4959198;28;20054;-86
2022/01/16 08:32:46;;;;;;;34.05;16.25;;;;;;;;;;4970591;28;20541;-88
2022/01/16 08:35:12;;;;;;;29.55;14.98;;;;;;;;;;4959754;28;20094;-84
2022/01/16 08:37:37;;;;;;;36.55;15.38;;;;;;;;;;4959154;28;20090;-86
2022/01/16 08:40:04;;;;;;;22.98;13.57;;;;;;;;;;4960769;28;20493;-87
2022/01/16 08:42:30;;;;;;;23.65;14.30;;;;;;;;;;4956908;29;20043;-85
2022/01/16 08:44:55;;;;;;;24.17;14.68;;;;;;;;;;4973040;28;20026;-84
2022/01/16 08:47:21;;;;;;;26.27;13.63;;;;;;;;;;4973771;28;20085;-87
2022/01/16 08:49:46;;;;;;;23.40;13.63;;;;;;;;;;4963899;28;20093;-85
2022/01/16 08:52:13;;;;;;;26.45;13.40;;;;;;;;;;4971774;28;20552;-86
2022/01/16 08:54:39;;;;;;;26.15;13.88;;;;;;;;;;4965708;28;20042;-85
2022/01/16 08:57:04;;;;;;;25.70;13.98;;;;;;;;;;4951168;28;20026;-85
2022/01/16 08:59:30;;;;;;;29.27;15.40;;;;;;;;;;4968647;28;20023;-87
2022/01/16 09:01:55;;;;;;;20.40;13.30;;;;;;;;;;4970005;28;20026;-86
2022/01/16 09:04:21;;;;;;;26.90;14.38;;;;;;;;;;4963965;28;20396;-87
2022/01/16 09:06:46;;;;;;;25.90;14.20;;;;;;;;;;4980878;28;20026;-86
2022/01/16 09:09:12;;;;;;;22.42;13.07;;;;;;;;;;4962081;28;20023;-87
2022/01/16 09:11:37;;;;;;;21.75;12.57;;;;;;;;;;4961749;29;20121;-86
2022/01/16 09:14:03;;;;;;;25.85;14.02;;;;;;;;;;4955913;29;20023;-88
2022/01/16 09:16:30;;;;;;;23.80;12.52;;;;;;;;;;4961527;28;20086;-87
2022/01/16 09:18:56;;;;;;;25.95;14.55;;;;;;;;;;4962374;29;20028;-86
2022/01/16 09:21:21;;;;;;;27.77;14.32;;;;;;;;;;4945363;29;20029;-86
2022/01/16 09:23:48;;;;;;;27.48;14.27;;;;;;;;;;4944425;29;20023;-88
2022/01/16 09:26:14;;;;;;;24.75;14.00;;;;;;;;;;4953204;29;20019;-86
2022/01/16 09:28:43;;;;;;;28.48;13.77;;;;;;;;;;4949104;28;20018;-86
2022/01/16 09:31:09;;;;;;;22.33;13.23;;;;;;;;;;4970059;28;20035;-88
2022/01/16 09:33:35;;;;;;;26.65;14.60;;;;;;;;;;4948042;28;20037;-89
2022/01/16 09:36:02;;;;;;;30.67;14.27;;;;;;;;;;4969843;28;20023;-87
2022/01/16 09:38:28;;;;;;;29.20;14.55;;;;;;;;;;4974821;28;20023;-89
2022/01/16 09:40:54;;;;;;;28.75;14.15;;;;;;;;;;4968927;28;20114;-87
2022/01/16 09:43:21;;;;;;;30.00;15.35;;;;;;;;;;4966835;28;20026;-87
2022/01/16 09:45:46;;;;;;;28.55;15.43;;;;;;;;;;4954769;29;20548;-87
2022/01/16 09:48:12;;;;;;;29.13;15.68;;;;;;;;;;4984229;28;20043;-86
2022/01/16 09:50:37;;;;;;;31.27;16.50;;;;;;;;;;4985624;28;20022;-87
2022/01/16 09:53:04;;;;;;;30.70;15.93;;;;;;;;;;4974823;28;20061;-88
2022/01/16 09:55:29;;;;;;;38.45;16.65;;;;;;;;;;4952863;28;20023;-86
2022/01/16 09:57:57;;;;;;;32.35;16.33;;;;;;;;;;4964464;28;20079;-87
2022/01/16 10:00:26;;;;;;;32.38;16.17;;;;;;;;;;4963684;28;20117;-87
2022/01/16 10:02:52;;;;;;;32.83;16.65;;;;;;;;;;4976304;28;20019;-87
2022/01/16 10:05:32;;;;;;;37.20;16.55;;;;;;;;;;4970319;28;20027;-87
2022/01/16 10:08:04;;;;;;;34.13;17.90;;;;;;;;;;4954717;28;20023;-88
2022/01/16 10:10:33;;;;;;;34.85;15.65;;;;;;;;;;4958485;28;20029;-88
2022/01/16 10:13:06;;;;;;;40.88;18.10;;;;;;;;;;4975679;28;20028;-88
2022/01/16 10:15:32;;;;;;;41.08;19.65;;;;;;;;;;4972972;28;20026;-88
2022/01/16 10:17:59;;;;;;;45.72;20.85;;;;;;;;;;4969174;28;20074;-88
2022/01/16 10:20:26;;;;;;;44.35;17.98;;;;;;;;;;4970241;28;20035;-87
2022/01/16 10:23:00;;;;;;;42.80;20.02;;;;;;;;;;4970866;28;20027;-88
2022/01/16 10:25:47;;;;;;;43.03;20.20;;;;;;;;;;4961466;28;20027;-88
2022/01/16 10:28:18;;;;;;;38.28;19.60;;;;;;;;;;4972626;28;20062;-89
2022/01/16 10:30:56;;;;;;;36.17;16.40;;;;;;;;;;4977470;28;20026;-88
2022/01/16 10:33:23;;;;;;;38.28;19.02;;;;;;;;;;4955536;28;20030;-88
2022/01/16 10:35:51;;;;;;;37.67;17.40;;;;;;;;;;4952878;28;21408;-89
2022/01/16 10:38:28;;;;;;;42.80;19.65;;;;;;;;;;4968779;28;20035;-89
2022/01/16 10:40:55;;;;;;;40.78;18.38;;;;;;;;;;4943485;29;20023;-89
2022/01/16 10:43:37;;;;;;;42.90;17.90;;;;;;;;;;4960591;29;20027;-87
2022/01/16 10:46:02;;;;;;;40.83;20.47;;;;;;;;;;4959354;28;20066;-86
2022/01/16 10:48:28;;;;;;;36.42;18.05;;;;;;;;;;4973772;28;20018;-85
2022/01/16 10:50:53;;;;;;;32.97;17.33;;;;;;;;;;4976367;28;20519;-86
2022/01/16 10:53:24;;;;;;;40.00;19.30;;;;;;;;;;4983321;28;20022;-88
2022/01/16 10:55:52;;;;;;;36.08;17.23;;;;;;;;;;4987316;28;20031;-88
2022/01/16 10:58:21;;;;;;;35.22;17.95;;;;;;;;;;4951818;29;20050;-89
2022/01/16 11:00:54;;;;;;;33.03;16.75;;;;;;;;;;4948192;29;20023;-89
2022/01/16 11:03:21;;;;;;;35.00;18.05;;;;;;;;;;4946653;29;20027;-89
2022/01/16 11:05:47;;;;;;;39.05;17.92;;;;;;;;;;4961361;29;20031;-89
2022/01/16 11:08:15;;;;;;;35.67;17.77;;;;;;;;;;4983410;28;20023;-89
2022/01/16 11:10:46;;;;;;;33.30;16.73;;;;;;;;;;4966586;29;20031;-88
2022/01/16 11:13:16;;;;;;;34.65;17.15;;;;;;;;;;4970853;28;20023;-86
2022/01/16 11:15:45;;;;;;;39.90;18.27;;;;;;;;;;4962178;29;20023;-86
2022/01/16 11:18:12;;;;;;;32.45;15.32;;;;;;;;;;4976240;28;20027;-85
2022/01/16 11:20:39;;;;;;;35.95;18.00;;;;;;;;;;4960588;29;20023;-88
2022/01/16 11:23:28;;;;;;;42.03;17.75;;;;;;;;;;4961668;28;20370;-87
2022/01/16 11:26:01;;;;;;;43.72;17.88;;;;;;;;;;4963911;28;20029;-88
2022/01/16 11:28:27;;;;;;;39.75;17.92;;;;;;;;;;4962167;28;20015;-86
2022/01/16 11:30:57;;;;;;;32.92;15.32;;;;;;;;;;4958609;28;20027;-87
2022/01/16 11:33:24;;;;;;;41.63;19.40;;;;;;;;;;4941636;29;20027;-86
2022/01/16 11:35:56;;;;;;;45.70;16.45;;;;;;;;;;4958683;28;20023;-88
2022/01/16 11:38:27;;;;;;;34.13;14.43;;;;;;;;;;4972337;28;20064;-86
2022/01/16 11:40:53;;;;;;;34.42;16.85;;;;;;;;;;4958530;29;20122;-87
2022/01/16 11:43:40;;;;;;;31.38;15.98;;;;;;;;;;4970754;28;20027;-87
2022/01/16 11:46:12;;;;;;;31.05;13.43;;;;;;;;;;4965486;28;20135;-87
2022/01/16 11:48:51;;;;;;;18.65;9.63;;;;;;;;;;4957847;28;20443;-89
2022/01/16 11:54:28;;;;;;;36.17;14.38;;;;;;;;;;4958512;28;20027;-88
2022/01/16 11:57:06;;;;;;;34.45;14.30;;;;;;;;;;4966494;28;20019;-86
2022/01/16 11:59:40;;;;;;;22.80;9.90;;;;;;;;;;4941305;29;20038;-89
2022/01/16 12:02:09;;;;;;;14.10;7.22;;;;;;;;;;4946490;29;20397;-88
2022/01/16 12:04:34;;;;;;;28.25;13.13;;;;;;;;;;4953378;28;20019;-87
2022/01/16 12:07:11;;;;;;;22.80;10.90;;;;;;;;;;4972753;28;20633;-86
2022/01/16 12:12:14;;;;;;;42.47;18.33;;;;;;;;;;4957795;28;20474;-88
2022/01/16 12:15:01;;;;;;;32.92;14.90;;;;;;;;;;4936722;28;20047;-86
2022/01/16 12:17:30;;;;;;;29.20;15.07;;;;;;;;;;4956423;29;20118;-87
2022/01/16 12:20:11;;;;;;;34.03;15.10;;;;;;;;;;4958353;28;20027;-86
2022/01/16 12:23:05;;;;;;;35.80;15.27;;;;;;;;;;4975486;28;20039;-87
2022/01/16 12:25:42;;;;;;;35.58;14.65;;;;;;;;;;4960215;28;20056;-87
2022/01/16 12:28:08;;;;;;;34.63;16.90;;;;;;;;;;4971771;28;20046;-86
2022/01/16 12:30:33;;;;;;;28.25;13.23;;;;;;;;;;4962572;28;20023;-86
2022/01/16 12:33:08;;;;;;;41.80;16.20;;;;;;;;;;4969381;28;20078;-86
2022/01/16 12:35:46;;;;;;;31.08;14.10;;;;;;;;;;4962027;28;20030;-87
2022/01/16 12:38:17;;;;;;;32.22;15.27;;;;;;;;;;4973835;28;20023;-87
2022/01/16 12:40:51;;;;;;;30.23;14.57;;;;;;;;;;4961447;28;20039;-88
2022/01/16 12:43:25;;;;;;;32.00;14.35;;;;;;;;;;4972135;28;20597;-87
2022/01/16 12:45:51;;;;;;;28.05;14.10;;;;;;;;;;4947539;28;20051;-86
2022/01/16 12:48:16;;;;;;;31.63;13.77;;;;;;;;;;4947634;29;20024;-87
2022/01/16 12:50:41;;;;;;;31.50;14.20;;;;;;;;;;4976024;28;20026;-87
2022/01/16 12:53:07;;;;;;;26.63;12.90;;;;;;;;;;4955381;28;20035;-88
2022/01/16 12:55:34;;;;;;;29.00;13.38;;;;;;;;;;4966313;28;20031;-87
2022/01/16 12:58:20;;;;;;;25.58;12.70;;;;;;;;;;4951548;28;20031;-88
2022/01/16 13:01:04;;;;;;;28.98;13.45;;;;;;;;;;4960966;29;20473;-87
2022/01/16 13:03:32;;;;;;;29.15;13.00;;;;;;;;;;4968407;28;20022;-87
2022/01/16 13:06:27;;;;;;;27.42;13.48;;;;;;;;;;4963607;28;20462;-86
2022/01/16 13:09:04;;;;;;;26.98;13.55;;;;;;;;;;4954530;29;20023;-87
2022/01/16 13:11:37;;;;;;;26.35;13.00;;;;;;;;;;4961424;29;20091;-88
2022/01/16 13:14:04;;;;;;;28.50;13.25;;;;;;;;;;4963177;28;20027;-87
2022/01/16 13:16:38;;;;;;;30.52;12.40;;;;;;;;;;4952719;28;20102;-90
2022/01/16 13:19:18;;;;;;;27.08;13.57;;;;;;;;;;4975950;28;20022;-88
2022/01/16 13:25:01;;;;;;;29.98;13.65;;;;;;;;;;4958265;28;20039;-87
2022/01/16 13:27:32;;;;;;;23.25;12.20;;;;;;;;;;4968248;28;20501;-87
2022/01/16 13:29:58;;;;;;;24.13;12.88;;;;;;;;;;4964404;28;20110;-88
2022/01/16 13:32:28;;;;;;;24.77;12.73;;;;;;;;;;4960695;28;20035;-87
2022/01/16 13:34:55;;;;;;;27.77;12.57;;;;;;;;;;4940719;28;20449;-86
2022/01/16 13:37:30;;;;;;;24.17;12.77;;;;;;;;;;4951542;29;20038;-87
2022/01/16 13:40:02;;;;;;;26.70;12.70;;;;;;;;;;4961794;28;20609;-88
2022/01/16 13:42:51;;;;;;;27.85;13.68;;;;;;;;;;4970548;29;20106;-86
2022/01/16 13:45:36;;;;;;;25.20;12.50;;;;;;;;;;4961065;28;20037;-87
2022/01/16 13:48:18;;;;;;;22.55;12.25;;;;;;;;;;4970322;28;20038;-89
2022/01/16 13:50:57;;;;;;;22.08;11.25;;;;;;;;;;4962251;29;20389;-87
2022/01/16 13:53:24;;;;;;;24.42;11.57;;;;;;;;;;4953224;28;20031;-86
2022/01/16 13:55:55;;;;;;;24.95;10.38;;;;;;;;;;4965895;28;20087;-86
2022/01/16 13:58:26;;;;;;;21.05;9.38;;;;;;;;;;4971327;28;20027;-87
2022/01/16 14:00:54;;;;;;;24.87;12.10;;;;;;;;;;4960315;29;20475;-85
2022/01/16 14:03:27;;;;;;;23.35;11.00;;;;;;;;;;4959377;29;20043;-85
2022/01/16 14:05:55;;;;;;;22.63;11.07;;;;;;;;;;4968649;28;20046;-87
2022/01/16 14:08:26;;;;;;;21.48;11.20;;;;;;;;;;4976886;28;20022;-88
2022/01/16 14:10:55;;;;;;;17.92;9.73;;;;;;;;;;4975430;28;20366;-86
2022/01/16 14:13:21;;;;;;;20.10;10.10;;;;;;;;;;4977059;28;20445;-87
2022/01/16 14:16:12;;;;;;;20.80;9.77;;;;;;;;;;4975210;28;20459;-87
2022/01/16 14:19:20;;;;;;;19.73;10.50;;;;;;;;;;4978168;28;20031;-87
2022/01/16 14:24:03;;;;;;;19.73;10.82;;;;;;;;;;4965805;28;20023;-88
2022/01/16 14:26:29;;;;;;;19.98;9.63;;;;;;;;;;4957404;29;20016;-88
2022/01/16 14:28:54;;;;;;;17.77;9.82;;;;;;;;;;4976481;28;20142;-87
2022/01/16 14:31:20;;;;;;;18.65;10.00;;;;;;;;;;4960732;29;20042;-88
2022/01/16 14:33:47;;;;;;;20.77;10.13;;;;;;;;;;4952329;29;20084;-89
2022/01/16 14:36:14;;;;;;;18.40;10.15;;;;;;;;;;4956877;28;20102;-87
2022/01/16 14:38:39;;;;;;;21.42;10.60;;;;;;;;;;4954267;29;20568;-88
2022/01/16 14:41:05;;;;;;;18.48;10.30;;;;;;;;;;4962082;28;20087;-87
2022/01/16 14:43:41;;;;;;;19.65;9.68;;;;;;;;;;4957040;28;20049;-89
2022/01/16 14:46:07;;;;;;;17.95;9.80;;;;;;;;;;4956821;28;20030;-86
2022/01/16 14:48:32;;;;;;;16.58;9.10;;;;;;;;;;4957861;28;20019;-88
2022/01/16 14:50:58;;;;;;;18.13;9.32;;;;;;;;;;4958708;28;20038;-88
2022/01/16 14:53:23;;;;;;;16.35;8.75;;;;;;;;;;4957623;28;20031;-88
2022/01/16 14:55:48;;;;;;;16.80;9.18;;;;;;;;;;4957791;28;20105;-88
2022/01/16 14:58:14;;;;;;;16.85;9.30;;;;;;;;;;4958334;28;20031;-85
2022/01/16 15:00:39;;;;;;;20.30;10.27;;;;;;;;;;4960134;28;20483;-88
2022/01/16 15:03:04;;;;;;;15.13;9.43;;;;;;;;;;4959753;28;20023;-85
2022/01/16 15:05:30;;;;;;;17.08;9.80;;;;;;;;;;4961509;28;20022;-87
2022/01/16 15:07:55;;;;;;;15.98;8.48;;;;;;;;;;4978088;28;20385;-86
2022/01/16 15:10:21;;;;;;;16.38;9.93;;;;;;;;;;4977171;28;20030;-87
2022/01/16 15:12:46;;;;;;;20.67;9.70;;;;;;;;;;4960147;28;20058;-85
2022/01/16 15:15:12;;;;;;;15.82;8.88;;;;;;;;;;4968239;28;20028;-85
2022/01/16 15:17:43;;;;;;;16.60;8.75;;;;;;;;;;4962753;28;20107;-86
2022/01/16 15:20:19;;;;;;;13.50;7.95;;;;;;;;;;4968829;28;20027;-85
2022/01/16 15:22:48;;;;;;;16.20;8.85;;;;;;;;;;4958044;29;20027;-86